Time;durP1;ratioP1;P1;durP2;ratioP2;P2;SDS_P1;SDS_P2;PMS_P1;PMS_P2;Temp;Humidity;BMP_temperature;BMP_pressure;BME280_temperature;BME280_humidity;BME280_pressure;Samples;Min_cycle;Max_cycle;Signal;HPM_P1;HPM_P2
2022/09/30 00:01:46;;;;;;;11.13;10.00;;;;;;;15.91;81.34;94583.44;4981598;28;20191;-67
2022/09/30 00:04:20;;;;;;;11.52;9.70;;;;;;;15.85;81.72;94600.94;4969988;28;20219;-67
2022/09/30 00:06:46;;;;;;;11.43;10.05;;;;;;;15.78;82.04;94596.59;4975762;28;20351;-67
2022/09/30 00:09:12;;;;;;;10.63;9.65;;;;;;;15.79;81.68;94600.88;4964961;28;20302;-67
2022/09/30 00:11:39;;;;;;;11.63;9.27;;;;;;;15.60;82.88;94610.31;4971094;28;20182;-67
2022/09/30 00:14:05;;;;;;;10.05;9.05;;;;;;;15.68;82.58;94599.56;4969616;28;20187;-68
2022/09/30 00:16:35;;;;;;;10.27;9.27;;;;;;;15.73;81.74;94602.47;4977389;28;20266;-68
2022/09/30 00:19:03;;;;;;;12.35;9.00;;;;;;;15.72;82.20;94603.50;4965631;28;20190;-69
2022/09/30 00:21:28;;;;;;;10.02;9.07;;;;;;;15.72;81.93;94584.94;4970880;28;20179;-67
2022/09/30 00:23:55;;;;;;;10.65;9.55;;;;;;;15.72;81.80;94598.19;4974821;28;20303;-66
2022/09/30 00:26:22;;;;;;;12.20;10.00;;;;;;;15.74;82.31;94600.63;4968392;28;20262;-68
2022/09/30 00:28:53;;;;;;;10.50;9.40;;;;;;;15.85;81.77;94616.00;4977321;28;20191;-68
2022/09/30 00:31:21;;;;;;;10.93;9.80;;;;;;;15.82;81.78;94627.00;4966152;28;20287;-68
2022/09/30 00:34:05;;;;;;;15.60;9.85;;;;;;;15.76;81.62;94619.81;4987175;28;20191;-69
2022/09/30 00:36:36;;;;;;;10.70;9.57;;;;;;;15.74;81.86;94624.50;4977899;28;20194;-68
2022/09/30 00:39:03;;;;;;;11.07;10.02;;;;;;;15.65;82.43;94615.84;4987028;28;20725;-69
2022/09/30 00:41:28;;;;;;;11.30;10.23;;;;;;;15.71;82.71;94611.63;4972922;28;20213;-69
2022/09/30 00:43:54;;;;;;;15.35;10.55;;;;;;;15.72;82.04;94608.00;4971368;28;20211;-68
2022/09/30 00:46:37;;;;;;;11.90;9.90;;;;;;;15.73;81.86;94599.81;4973213;28;20231;-68
2022/09/30 00:49:24;;;;;;;14.60;10.40;;;;;;;15.77;82.19;94584.34;4971791;28;20198;-68
2022/09/30 00:51:55;;;;;;;11.43;10.23;;;;;;;15.72;82.26;94587.59;4974380;28;20183;-68
2022/09/30 00:54:28;;;;;;;12.27;11.18;;;;;;;15.60;83.15;94605.00;4972008;28;20184;-68
2022/09/30 00:56:58;;;;;;;14.30;11.95;;;;;;;15.71;82.57;94593.91;4984061;28;20188;-67
2022/09/30 00:59:32;;;;;;;13.63;12.35;;;;;;;15.65;83.31;94578.75;4976661;28;20187;-67
2022/09/30 01:01:58;;;;;;;14.60;12.95;;;;;;;15.74;83.06;94612.06;4969917;28;20179;-67
2022/09/30 01:04:27;;;;;;;14.95;13.45;;;;;;;15.82;82.24;94605.78;4967681;28;20199;-67
2022/09/30 01:06:52;;;;;;;15.82;14.43;;;;;;;15.84;81.77;94601.13;4983972;28;20180;-67
2022/09/30 01:09:18;;;;;;;15.88;14.30;;;;;;;15.81;82.23;94612.94;4972403;28;20187;-67
2022/09/30 01:11:45;;;;;;;15.60;14.07;;;;;;;15.86;82.30;94602.56;4989156;28;20184;-67
2022/09/30 01:14:17;;;;;;;16.35;13.98;;;;;;;15.71;82.83;94587.78;4974299;28;20180;-68
2022/09/30 01:17:24;;;;;;;15.32;13.82;;;;;;;15.79;82.45;94587.63;4978630;28;20191;-68
2022/09/30 01:20:45;;;;;;;15.32;13.73;;;;;;;15.63;82.69;94600.13;4972116;28;20183;-68
2022/09/30 01:23:13;;;;;;;14.60;13.10;;;;;;;15.54;83.02;94601.28;4981874;28;20274;-68
2022/09/30 01:26:02;;;;;;;16.02;14.20;;;;;;;15.51;83.07;94595.56;4980375;28;20180;-68
2022/09/30 01:28:38;;;;;;;14.80;12.98;;;;;;;15.44;83.41;94598.16;4984720;28;20275;-68
2022/09/30 01:31:48;;;;;;;14.05;12.77;;;;;;;15.58;82.97;94613.16;4984056;28;20263;-67
2022/09/30 01:34:32;;;;;;;14.60;12.60;;;;;;;15.46;82.43;94603.28;4970230;28;20270;-67
2022/09/30 01:37:24;;;;;;;14.18;12.68;;;;;;;15.37;82.67;94603.41;4968025;28;20187;-68
2022/09/30 01:40:07;;;;;;;12.85;10.77;;;;;;;15.34;83.07;94610.91;4986156;28;20192;-68
2022/09/30 01:42:44;;;;;;;12.55;11.40;;;;;;;15.47;81.76;94608.38;4972582;28;20222;-68
2022/09/30 01:45:12;;;;;;;13.52;12.32;;;;;;;15.38;81.32;94606.88;4977376;28;20198;-68
2022/09/30 01:47:48;;;;;;;13.02;11.73;;;;;;;15.32;81.84;94603.16;4963718;28;20267;-67
2022/09/30 01:50:35;;;;;;;12.75;11.18;;;;;;;15.34;81.48;94605.59;4983595;28;20183;-67
2022/09/30 01:53:11;;;;;;;12.45;11.15;;;;;;;15.20;82.05;94602.03;4968192;28;20180;-67
2022/09/30 01:55:44;;;;;;;12.02;10.80;;;;;;;15.22;81.96;94597.38;4969972;28;20187;-67
2022/09/30 01:58:32;;;;;;;13.93;10.85;;;;;;;15.21;81.77;94606.34;4980702;28;20190;-67
2022/09/30 02:01:00;;;;;;;13.77;11.15;;;;;;;15.14;81.89;94610.75;4968178;28;20189;-68
2022/09/30 02:03:32;;;;;;;11.93;10.48;;;;;;;15.22;81.19;94602.66;4969210;28;20300;-67
2022/09/30 02:06:11;;;;;;;11.80;10.68;;;;;;;15.09;81.43;94597.25;4971607;28;20188;-67
2022/09/30 02:09:05;;;;;;;13.48;11.23;;;;;;;14.98;82.42;94607.31;4986293;28;20184;-68
2022/09/30 02:11:35;;;;;;;13.98;11.32;;;;;;;15.02;82.36;94601.66;4887659;29;20230;-68
2022/09/30 02:14:04;;;;;;;13.95;11.20;;;;;;;15.03;82.03;94608.59;4876161;29;20203;-68
2022/09/30 02:16:42;;;;;;;12.35;11.20;;;;;;;14.97;82.59;94623.41;4885052;29;20199;-68
2022/09/30 02:19:32;;;;;;;11.77;10.23;;;;;;;14.94;82.36;94616.66;4877078;29;20222;-67
2022/09/30 02:22:10;;;;;;;11.00;10.00;;;;;;;14.94;82.46;94616.66;4888442;29;20195;-67
2022/09/30 02:24:36;;;;;;;12.90;10.57;;;;;;;14.88;82.88;94619.22;4884567;29;20215;-66
2022/09/30 02:27:10;;;;;;;11.70;10.52;;;;;;;14.77;83.72;94620.53;4901741;29;20223;-67
2022/09/30 02:29:42;;;;;;;11.93;10.43;;;;;;;14.92;82.58;94620.50;4902690;29;20289;-69
2022/09/30 02:32:29;;;;;;;11.85;10.73;;;;;;;14.88;82.48;94628.00;4871673;29;20201;-69
2022/09/30 02:35:06;;;;;;;15.77;11.05;;;;;;;14.85;82.63;94632.84;4880181;29;20222;-70
2022/09/30 02:37:36;;;;;;;12.68;11.27;;;;;;;14.66;83.26;94632.44;4884564;29;20207;-69
2022/09/30 02:40:18;;;;;;;12.02;10.70;;;;;;;14.72;83.46;94625.56;4872357;29;20198;-68
2022/09/30 02:42:44;;;;;;;11.25;10.18;;;;;;;14.72;82.66;94618.44;4883219;29;20234;-68
2022/09/30 02:45:18;;;;;;;12.15;10.40;;;;;;;14.73;82.93;94619.28;4898524;29;20219;-68
2022/09/30 02:48:22;;;;;;;11.95;10.80;;;;;;;14.75;82.50;94611.97;4910031;28;20279;-67
2022/09/30 02:51:00;;;;;;;12.05;10.90;;;;;;;14.80;81.96;94608.75;4969944;28;20171;-68
2022/09/30 02:53:38;;;;;;;13.60;10.57;;;;;;;14.75;81.72;94607.50;4985410;28;20184;-68
2022/09/30 02:56:25;;;;;;;12.48;11.35;;;;;;;14.65;82.12;94611.44;4970719;28;20187;-68
2022/09/30 02:58:55;;;;;;;12.68;11.48;;;;;;;14.38;82.87;94624.34;4964575;28;20179;-69
2022/09/30 03:01:21;;;;;;;11.27;10.27;;;;;;;14.50;82.75;94628.16;4965993;28;20211;-69
2022/09/30 03:03:54;;;;;;;12.82;11.45;;;;;;;14.76;81.11;94629.50;4966621;28;20268;-69
2022/09/30 03:06:20;;;;;;;23.05;12.00;;;;;;;14.74;81.57;94631.50;4972730;28;20211;-68
2022/09/30 03:08:46;;;;;;;35.13;12.57;;;;;;;14.80;82.13;94635.22;4986273;28;20630;-68
2022/09/30 03:11:24;;;;;;;13.85;12.02;;;;;;;14.80;81.61;94646.63;4985140;28;20231;-67
2022/09/30 03:14:37;;;;;;;16.58;12.05;;;;;;;14.86;81.50;94645.91;4975531;28;20215;-68
2022/09/30 03:17:44;;;;;;;36.58;11.48;;;;;;;14.91;81.56;94640.84;4910681;29;20205;-68
2022/09/30 03:20:27;;;;;;;46.22;14.13;;;;;;;14.61;83.09;94629.53;4915607;29;20265;-68
2022/09/30 03:23:00;;;;;;;34.10;12.25;;;;;;;14.50;85.44;94651.16;4915113;29;20213;-68
2022/09/30 03:25:43;;;;;;;36.70;13.43;;;;;;;14.54;84.38;94642.69;4914716;29;20272;-68
2022/09/30 03:28:27;;;;;;;20.80;13.88;;;;;;;14.54;84.09;94650.63;4915819;29;20276;-67
2022/09/30 03:31:16;;;;;;;21.35;14.15;;;;;;;14.54;84.85;94640.03;4915630;29;20215;-69
2022/09/30 03:33:47;;;;;;;40.45;13.93;;;;;;;14.71;84.43;94648.56;4916243;29;20221;-68
2022/09/30 03:36:34;;;;;;;19.98;13.82;;;;;;;14.77;84.49;94652.31;4916010;29;20197;-68
2022/09/30 03:39:10;;;;;;;27.23;14.32;;;;;;;14.85;83.80;94654.84;4915471;29;20202;-67
2022/09/30 03:42:04;;;;;;;52.90;15.82;;;;;;;14.75;84.53;94644.56;4930577;29;20294;-67
2022/09/30 03:45:07;;;;;;;36.25;16.15;;;;;;;14.74;84.60;94642.09;4916535;29;20206;-67
2022/09/30 03:47:37;;;;;;;44.55;16.90;;;;;;;14.78;84.72;94640.69;4873873;29;20219;-67
2022/09/30 03:50:08;;;;;;;90.60;15.98;;;;;;;14.86;84.84;94643.25;4858773;29;20196;-67
2022/09/30 03:52:35;;;;;;;42.22;15.68;;;;;;;14.89;84.73;94666.72;4876056;29;20209;-68
2022/09/30 03:55:03;;;;;;;54.15;16.65;;;;;;;14.91;84.56;94664.66;4912751;29;20179;-67
2022/09/30 03:57:29;;;;;;;45.13;16.45;;;;;;;14.99;84.04;94661.94;4895330;29;20206;-67
2022/09/30 03:59:58;;;;;;;96.53;17.30;;;;;;;14.99;83.30;94666.38;4912929;29;20198;-67
2022/09/30 04:02:25;;;;;;;38.03;17.38;;;;;;;14.87;84.65;94670.53;4910770;29;20183;-67
2022/09/30 04:04:50;;;;;;;42.58;17.48;;;;;;;14.83;84.47;94661.31;4917379;29;20226;-67
2022/09/30 04:07:16;;;;;;;68.05;18.48;;;;;;;14.89;84.57;94671.16;4912717;29;20192;-68
2022/09/30 04:09:42;;;;;;;37.85;17.83;;;;;;;14.88;84.80;94670.34;4913405;29;20252;-67
2022/09/30 04:12:08;;;;;;;38.72;17.25;;;;;;;14.90;84.92;94670.97;4911354;29;20282;-67
2022/09/30 04:14:34;;;;;;;129.35;18.38;;;;;;;14.95;84.56;94668.59;4898193;29;20190;-68
2022/09/30 04:17:01;;;;;;;146.63;19.63;;;;;;;14.83;84.40;94661.31;4910766;29;20369;-67
2022/09/30 04:19:26;;;;;;;74.40;18.65;;;;;;;14.73;84.79;94664.28;4916955;29;20196;-68
2022/09/30 04:21:53;;;;;;;141.25;18.27;;;;;;;14.74;85.29;94674.66;4903623;29;20202;-67
2022/09/30 04:24:22;;;;;;;150.02;17.70;;;;;;;14.75;85.59;94660.44;4949662;28;20219;-67
2022/09/30 04:26:49;;;;;;;48.22;18.58;;;;;;;14.62;85.80;94662.94;4987497;28;20187;-68
2022/09/30 04:29:17;;;;;;;49.38;17.95;;;;;;;14.58;86.68;94650.25;4986284;28;20184;-67
2022/09/30 04:31:43;;;;;;;32.85;16.77;;;;;;;14.61;86.62;94655.16;4984426;28;20195;-67
2022/09/30 04:34:10;;;;;;;71.70;17.02;;;;;;;14.73;86.28;94680.97;4985554;28;20193;-66
2022/09/30 04:36:36;;;;;;;92.75;18.73;;;;;;;14.94;84.68;94668.78;4984396;28;20179;-66
2022/09/30 04:39:02;;;;;;;27.10;16.70;;;;;;;14.62;86.56;94685.91;4962408;28;20270;-65
2022/09/30 04:41:28;;;;;;;99.63;17.95;;;;;;;14.79;85.60;94679.41;4972296;28;20283;-66
2022/09/30 04:43:54;;;;;;;78.75;18.65;;;;;;;14.73;85.41;94683.63;4975158;28;20765;-66
2022/09/30 04:46:21;;;;;;;60.17;20.08;;;;;;;14.73;85.33;94682.81;4969666;28;20231;-68
2022/09/30 04:48:47;;;;;;;55.17;18.75;;;;;;;14.75;85.75;94689.56;4963708;28;20219;-67
2022/09/30 04:51:18;;;;;;;38.42;18.65;;;;;;;14.70;85.47;94697.22;4964760;28;20193;-69
2022/09/30 04:53:44;;;;;;;35.25;19.70;;;;;;;14.56;86.53;94698.88;4963886;28;20267;-69
2022/09/30 04:56:10;;;;;;;51.00;19.67;;;;;;;14.61;86.88;94708.09;4966268;28;20243;-70
2022/09/30 04:58:36;;;;;;;28.63;20.98;;;;;;;14.62;87.12;94717.66;4963126;28;20212;-70
2022/09/30 05:01:02;;;;;;;32.00;18.63;;;;;;;14.74;86.67;94724.13;4963930;28;20192;-71
2022/09/30 05:03:28;;;;;;;36.67;19.67;;;;;;;14.84;85.41;94722.03;4952631;28;20204;-70
2022/09/30 05:05:54;;;;;;;36.38;19.35;;;;;;;14.84;85.10;94723.88;4960547;28;20200;-69
2022/09/30 05:08:21;;;;;;;33.83;20.08;;;;;;;14.88;84.65;94710.06;4965954;28;20275;-69
2022/09/30 05:10:58;;;;;;;25.17;19.70;;;;;;;14.74;84.86;94709.06;4966180;28;20180;-72
2022/09/30 05:13:25;;;;;;;37.00;20.55;;;;;;;14.77;85.28;94719.28;4969464;28;20188;-68
2022/09/30 05:15:51;;;;;;;29.67;21.10;;;;;;;14.88;84.65;94696.81;4964701;28;20270;-69
2022/09/30 05:18:19;;;;;;;29.35;21.10;;;;;;;14.99;84.53;94706.09;4968930;28;20308;-69
2022/09/30 05:20:44;;;;;;;38.95;22.30;;;;;;;15.12;84.24;94735.38;4963116;28;20196;-69
2022/09/30 05:23:09;;;;;;;61.08;21.48;;;;;;;14.99;84.31;94737.88;4966197;28;20274;-70
2022/09/30 05:25:35;;;;;;;37.00;22.58;;;;;;;15.13;83.43;94733.53;4965835;28;20189;-69
2022/09/30 05:28:00;;;;;;;27.77;23.13;;;;;;;14.88;85.18;94747.09;4963305;28;20275;-69
2022/09/30 05:30:27;;;;;;;40.05;23.73;;;;;;;14.97;85.98;94742.56;4970952;28;20263;-69
2022/09/30 05:32:52;;;;;;;29.83;24.55;;;;;;;14.99;85.33;94733.41;4964386;28;20185;-68
2022/09/30 05:35:17;;;;;;;30.70;24.05;;;;;;;14.93;85.90;94728.84;4966442;28;20191;-69
2022/09/30 05:37:43;;;;;;;28.92;24.23;;;;;;;15.15;85.09;94731.53;4969106;28;20225;-69
2022/09/30 05:40:08;;;;;;;45.88;23.27;;;;;;;15.37;83.95;94749.13;4972532;28;20184;-69
2022/09/30 05:42:35;;;;;;;30.92;24.27;;;;;;;15.18;84.83;94739.09;4956946;28;20215;-70
2022/09/30 05:45:05;;;;;;;30.10;24.77;;;;;;;15.31;84.73;94765.75;4952056;28;20209;-70
2022/09/30 05:47:41;;;;;;;44.72;24.38;;;;;;;15.36;84.17;94751.94;4966858;28;20224;-69
2022/09/30 05:50:07;;;;;;;29.48;23.25;;;;;;;15.28;84.40;94760.81;4968134;28;20291;-68
2022/09/30 05:52:33;;;;;;;32.78;24.70;;;;;;;15.30;84.40;94756.16;4970640;28;20192;-67
2022/09/30 05:54:59;;;;;;;33.22;24.23;;;;;;;15.23;85.21;94757.91;4957918;28;20181;-72
2022/09/30 05:57:27;;;;;;;65.15;29.17;;;;;;;15.38;84.19;94777.25;4959924;28;20208;-72
2022/09/30 05:59:53;;;;;;;37.67;25.27;;;;;;;15.39;84.26;94772.75;4962565;28;20200;-67
2022/09/30 06:02:19;;;;;;;34.53;24.98;;;;;;;15.43;84.20;94760.78;4968893;28;20244;-67
2022/09/30 06:04:44;;;;;;;30.83;26.05;;;;;;;15.52;83.90;94766.78;4970685;28;20205;-64
2022/09/30 06:07:10;;;;;;;36.55;26.95;;;;;;;15.79;83.04;94765.25;4971212;28;20282;-65
2022/09/30 06:09:35;;;;;;;30.85;23.88;;;;;;;15.69;82.89;94781.47;4968919;28;20188;-66
2022/09/30 06:12:01;;;;;;;33.28;25.92;;;;;;;15.58;83.11;94774.81;4969499;28;20226;-65
2022/09/30 06:14:27;;;;;;;28.48;25.40;;;;;;;15.52;84.62;94769.44;4969476;28;20215;-65
2022/09/30 06:16:53;;;;;;;30.85;25.70;;;;;;;15.68;84.75;94778.97;4977484;28;20320;-64
2022/09/30 06:19:20;;;;;;;31.20;26.35;;;;;;;15.72;84.50;94780.28;4966771;28;20275;-65
2022/09/30 06:21:45;;;;;;;37.08;28.45;;;;;;;15.93;83.25;94758.22;4952405;28;20200;-64
2022/09/30 06:24:12;;;;;;;31.02;27.55;;;;;;;15.85;83.25;94778.56;4971037;28;20211;-64
2022/09/30 06:26:38;;;;;;;31.77;28.08;;;;;;;15.95;83.05;94764.16;4977009;28;20220;-64
2022/09/30 06:29:04;;;;;;;35.63;29.45;;;;;;;16.17;82.13;94771.09;4974840;28;20287;-65
2022/09/30 06:31:30;;;;;;;36.13;31.58;;;;;;;16.24;80.44;94787.88;4963504;28;20215;-65
2022/09/30 06:33:56;;;;;;;36.40;31.55;;;;;;;16.31;80.12;94782.63;4970862;28;20216;-64
2022/09/30 06:36:22;;;;;;;38.75;32.20;;;;;;;16.43;80.11;94774.94;4963697;28;20177;-66
2022/09/30 06:38:51;;;;;;;37.20;33.15;;;;;;;16.48;79.87;94783.97;4970352;28;20193;-66
2022/09/30 06:41:17;;;;;;;39.33;32.45;;;;;;;16.44;79.42;94787.19;4977350;28;20181;-66
2022/09/30 06:43:42;;;;;;;39.78;35.20;;;;;;;16.56;79.42;94790.13;4968872;28;20205;-65
2022/09/30 06:46:11;;;;;;;40.90;33.97;;;;;;;16.53;79.20;94799.31;4979931;28;20240;-65
2022/09/30 06:48:36;;;;;;;39.65;33.97;;;;;;;16.24;79.50;94809.09;4972723;28;20198;-64
2022/09/30 06:51:02;;;;;;;40.50;33.78;;;;;;;15.65;82.02;94804.03;4960424;28;20180;-65
2022/09/30 06:53:28;;;;;;;41.20;34.95;;;;;;;16.00;82.84;94812.97;4962109;28;20180;-65
2022/09/30 06:55:55;;;;;;;38.30;33.53;;;;;;;16.39;81.48;94821.47;4963709;28;20215;-65
2022/09/30 06:58:21;;;;;;;41.58;33.67;;;;;;;16.56;80.37;94824.66;4973473;28;20184;-66
2022/09/30 07:00:55;;;;;;;37.38;32.05;;;;;;;16.71;78.65;94834.16;4979129;28;20292;-66
2022/09/30 07:03:24;;;;;;;35.70;31.10;;;;;;;16.27;79.73;94837.06;4961863;28;20215;-64
2022/09/30 07:05:56;;;;;;;35.53;30.20;;;;;;;16.49;77.60;94832.53;4981387;28;20242;-65
2022/09/30 07:08:22;;;;;;;35.88;30.67;;;;;;;16.65;77.75;94826.97;4973173;28;20208;-67
2022/09/30 07:10:47;;;;;;;37.25;32.30;;;;;;;16.54;77.81;94830.97;4984270;28;20213;-66
2022/09/30 07:13:13;;;;;;;38.35;32.78;;;;;;;16.55;79.04;94837.09;4959540;28;20215;-66
2022/09/30 07:15:41;;;;;;;37.25;31.38;;;;;;;16.57;77.23;94840.34;4970744;28;20264;-65
2022/09/30 07:18:07;;;;;;;34.33;30.08;;;;;;;16.34;79.15;94853.06;4959464;28;20184;-63
2022/09/30 07:20:32;;;;;;;33.33;29.83;;;;;;;16.41;78.67;94857.41;4966630;28;20204;-64
2022/09/30 07:22:58;;;;;;;31.70;28.40;;;;;;;16.52;77.51;94843.63;4968308;28;20603;-66
2022/09/30 07:25:24;;;;;;;32.95;29.55;;;;;;;16.85;77.21;94860.81;4970091;28;20196;-64
2022/09/30 07:27:50;;;;;;;32.88;28.02;;;;;;;16.85;76.42;94848.38;4964120;28;20243;-64
2022/09/30 07:30:16;;;;;;;34.60;31.20;;;;;;;17.04;76.55;94860.13;4968725;28;20223;-66
2022/09/30 07:32:42;;;;;;;33.83;30.20;;;;;;;17.24;75.96;94873.53;4979169;28;20227;-65
2022/09/30 07:35:07;;;;;;;32.60;29.13;;;;;;;17.41;74.79;94864.19;4960489;28;20180;-65
2022/09/30 07:37:35;;;;;;;34.83;29.95;;;;;;;17.53;74.54;94882.25;4957792;28;20192;-66
2022/09/30 07:40:03;;;;;;;34.63;30.95;;;;;;;17.48;74.81;94872.22;4962162;28;20212;-65
2022/09/30 07:42:30;;;;;;;35.05;31.33;;;;;;;17.44;74.52;94865.66;4952859;28;20188;-66
2022/09/30 07:44:55;;;;;;;33.13;29.67;;;;;;;17.09;75.62;94868.31;4965307;28;20300;-64
2022/09/30 07:47:21;;;;;;;31.40;28.02;;;;;;;17.07;75.65;94859.72;4964542;28;20311;-66
2022/09/30 07:49:47;;;;;;;31.52;28.38;;;;;;;17.16;74.87;94871.00;4962254;28;20192;-65
2022/09/30 07:52:13;;;;;;;30.92;27.73;;;;;;;17.17;75.22;94859.38;4967135;28;20196;-64
2022/09/30 07:54:40;;;;;;;30.08;27.17;;;;;;;17.14;74.93;94851.81;4965110;28;20187;-67
2022/09/30 07:57:06;;;;;;;31.80;28.55;;;;;;;17.22;75.59;94861.47;4963635;28;20325;-66
2022/09/30 07:59:36;;;;;;;30.58;27.40;;;;;;;17.18;76.95;94861.81;4969584;28;20177;-66
2022/09/30 08:02:02;;;;;;;32.25;28.35;;;;;;;17.09;76.87;94855.03;4970261;28;20196;-64
2022/09/30 08:04:28;;;;;;;32.30;28.67;;;;;;;17.18;77.79;94874.28;4960167;28;20208;-65
2022/09/30 08:06:57;;;;;;;30.83;27.77;;;;;;;17.28;78.26;94882.75;4959746;28;20200;-67
2022/09/30 08:09:24;;;;;;;27.23;24.33;;;;;;;17.04;77.83;94873.41;4963984;28;20192;-66
2022/09/30 08:11:50;;;;;;;24.70;22.27;;;;;;;17.22;75.77;94880.06;4968670;28;20215;-66
2022/09/30 08:14:21;;;;;;;24.75;22.52;;;;;;;17.28;75.64;94884.59;4957027;28;20204;-65
2022/09/30 08:16:46;;;;;;;23.92;21.48;;;;;;;17.41;75.37;94885.47;4962987;28;20192;-69
2022/09/30 08:19:23;;;;;;;22.05;19.42;;;;;;;17.53;75.20;94882.25;4967410;28;20303;-66
2022/09/30 08:21:51;;;;;;;19.52;17.42;;;;;;;17.72;74.36;94891.31;4966799;28;20210;-66
2022/09/30 08:24:17;;;;;;;20.27;18.33;;;;;;;17.93;74.32;94887.75;4959588;28;20208;-65
2022/09/30 08:26:42;;;;;;;18.70;16.85;;;;;;;18.12;73.90;94897.59;4965413;28;20215;-66
2022/09/30 08:29:10;;;;;;;16.52;15.05;;;;;;;18.07;73.23;94884.09;4974351;28;20222;-67
2022/09/30 08:31:36;;;;;;;17.00;15.27;;;;;;;18.15;73.32;94888.41;4962298;28;20188;-65
2022/09/30 08:34:02;;;;;;;15.70;14.13;;;;;;;18.27;72.93;94886.78;4959900;28;20189;-67
2022/09/30 08:36:28;;;;;;;15.82;13.73;;;;;;;18.32;72.71;94888.84;4956944;28;20212;-67
2022/09/30 08:38:54;;;;;;;14.35;12.82;;;;;;;18.37;71.95;94900.53;4959923;28;20219;-66
2022/09/30 08:41:38;;;;;;;13.00;11.63;;;;;;;18.58;69.81;94896.88;4963210;28;20270;-66
2022/09/30 08:44:12;;;;;;;13.68;10.80;;;;;;;18.40;68.32;94894.00;4957564;28;20204;-66
2022/09/30 08:46:46;;;;;;;11.50;10.32;;;;;;;18.61;68.02;94895.66;4963763;28;20242;-69
2022/09/30 08:49:32;;;;;;;13.80;10.05;;;;;;;18.71;67.70;94899.53;4963310;28;20193;-68
2022/09/30 08:52:00;;;;;;;12.75;11.10;;;;;;;18.92;68.54;94903.88;4966358;28;20184;-67
2022/09/30 08:54:30;;;;;;;12.07;10.70;;;;;;;19.09;68.02;94901.59;4967554;28;20202;-68
2022/09/30 08:56:56;;;;;;;16.65;10.95;;;;;;;19.25;67.79;94908.34;4962575;28;20216;-66
2022/09/30 08:59:27;;;;;;;15.80;12.93;;;;;;;19.24;67.14;94912.00;4963374;28;20184;-67
2022/09/30 09:02:01;;;;;;;14.05;12.60;;;;;;;19.37;67.62;94908.50;4958637;28;20180;-66
2022/09/30 09:04:26;;;;;;;12.13;10.93;;;;;;;19.54;66.54;94906.19;4970694;28;20204;-68
2022/09/30 09:07:16;;;;;;;14.88;11.48;;;;;;;19.64;66.19;94911.91;4974763;28;20180;-67
2022/09/30 09:10:00;;;;;;;16.20;11.60;;;;;;;19.70;65.97;94905.78;4982841;28;20184;-67
2022/09/30 09:13:12;;;;;;;15.38;12.95;;;;;;;19.95;65.41;94921.06;4963807;28;20207;-66
2022/09/30 09:15:56;;;;;;;13.65;11.57;;;;;;;20.08;65.28;94918.34;4971811;28;20228;-67
2022/09/30 09:18:33;;;;;;;14.10;12.05;;;;;;;20.33;64.61;94914.91;4985169;28;20235;-67
2022/09/30 09:21:08;;;;;;;14.60;11.02;;;;;;;20.42;64.52;94910.94;4961608;28;20247;-65
2022/09/30 09:23:34;;;;;;;14.15;9.77;;;;;;;20.55;63.66;94918.09;4968044;28;20199;-66
2022/09/30 09:25:59;;;;;;;11.07;9.43;;;;;;;20.64;62.99;94925.63;4959599;28;20188;-67
2022/09/30 09:28:39;;;;;;;15.07;8.80;;;;;;;20.70;62.84;94923.94;4965448;28;20187;-67
2022/09/30 09:31:04;;;;;;;10.77;8.75;;;;;;;20.79;62.37;94921.81;4962076;28;20263;-67
2022/09/30 09:33:35;;;;;;;12.80;9.77;;;;;;;20.93;62.21;94912.69;4966300;28;20176;-65
2022/09/30 09:36:10;;;;;;;10.82;9.45;;;;;;;21.12;62.89;94930.41;4964299;28;20184;-66
2022/09/30 09:39:02;;;;;;;11.65;9.75;;;;;;;21.22;62.15;94921.84;4966920;28;20184;-69
2022/09/30 09:41:52;;;;;;;11.32;9.50;;;;;;;21.34;60.72;94911.25;4960503;28;20197;-66
2022/09/30 09:44:33;;;;;;;10.55;8.95;;;;;;;21.50;61.17;94915.25;4967334;28;20192;-66
2022/09/30 09:47:04;;;;;;;13.43;9.65;;;;;;;21.64;60.24;94923.94;4966265;28;20323;-65
2022/09/30 09:49:35;;;;;;;12.13;10.00;;;;;;;21.69;59.21;94916.88;4965923;28;20188;-67
2022/09/30 09:52:26;;;;;;;11.30;10.10;;;;;;;21.79;57.83;94919.03;4966677;28;20215;-65
2022/09/30 09:54:55;;;;;;;11.68;10.05;;;;;;;21.88;57.15;94906.97;4962785;28;20300;-65
2022/09/30 09:57:30;;;;;;;10.35;9.32;;;;;;;22.02;56.47;94913.81;4967683;28;20200;-67
2022/09/30 10:03:10;;;;;;;11.85;9.98;;;;;;;22.20;55.37;94917.53;4969098;28;20239;-67
2022/09/30 10:05:39;;;;;;;11.95;10.40;;;;;;;22.31;54.15;94927.47;4964862;28;20199;-70
2022/09/30 10:08:22;;;;;;;11.05;9.35;;;;;;;22.54;54.63;94920.56;4964539;28;20191;-71
2022/09/30 10:10:48;;;;;;;10.90;9.80;;;;;;;22.68;53.37;94916.63;4969754;28;20188;-69
2022/09/30 10:13:25;;;;;;;11.70;10.55;;;;;;;22.83;52.87;94916.22;4960109;28;20270;-70
2022/09/30 10:15:53;;;;;;;12.05;10.85;;;;;;;22.94;52.26;94917.28;4960845;28;20184;-62
2022/09/30 10:18:28;;;;;;;11.50;10.25;;;;;;;22.86;51.00;94905.03;4972626;28;20176;-71
2022/09/30 10:20:57;;;;;;;11.52;10.43;;;;;;;23.11;51.56;94908.34;4962112;28;20184;-69
2022/09/30 10:23:31;;;;;;;13.18;11.88;;;;;;;23.33;51.15;94903.22;4981927;28;20255;-67
2022/09/30 10:26:24;;;;;;;14.38;11.95;;;;;;;23.60;51.00;94908.06;4970445;28;20233;-68
2022/09/30 10:28:59;;;;;;;11.48;10.32;;;;;;;23.67;50.33;94900.72;4977438;28;20185;-70
2022/09/30 10:31:41;;;;;;;13.43;10.00;;;;;;;23.66;49.22;94896.41;4966095;28;20196;-63
2022/09/30 10:34:23;;;;;;;16.25;8.90;;;;;;;23.78;49.66;94899.09;4961788;28;20195;-69
2022/09/30 10:36:49;;;;;;;10.65;8.90;;;;;;;23.92;48.45;94905.00;4963536;28;20176;-71
2022/09/30 10:39:25;;;;;;;10.05;8.70;;;;;;;24.00;49.10;94893.91;4970472;28;20200;-69
2022/09/30 10:42:17;;;;;;;8.60;7.70;;;;;;;23.97;45.64;94895.19;4966488;28;20195;-71
2022/09/30 10:44:47;;;;;;;8.82;6.53;;;;;;;24.09;46.38;94897.84;4961344;28;20758;-70
2022/09/30 10:47:17;;;;;;;8.68;6.78;;;;;;;24.29;46.62;94904.66;4961253;28;20229;-70
2022/09/30 10:49:50;;;;;;;9.52;7.15;;;;;;;24.53;46.55;94894.66;4967890;28;20613;-68
2022/09/30 10:52:22;;;;;;;8.30;6.53;;;;;;;24.68;45.68;94904.88;4979189;28;20192;-70
2022/09/30 10:54:53;;;;;;;9.60;6.50;;;;;;;24.79;45.44;94899.41;4962304;28;20180;-72
2022/09/30 10:57:24;;;;;;;6.75;5.20;;;;;;;24.89;43.18;94901.47;4964854;28;20208;-73
2022/09/30 10:59:53;;;;;;;9.93;5.90;;;;;;;25.08;42.25;94897.47;4966550;28;20192;-69
2022/09/30 11:02:50;;;;;;;9.75;6.28;;;;;;;25.32;42.14;94902.72;4968143;28;20243;-71
2022/09/30 11:05:21;;;;;;;5.43;4.93;;;;;;;25.32;42.24;94900.00;4967776;28;20280;-70
2022/09/30 11:08:21;;;;;;;5.82;4.70;;;;;;;25.44;40.44;94894.53;4959610;28;20218;-70
2022/09/30 11:11:00;;;;;;;6.70;5.32;;;;;;;25.35;40.66;94896.81;4967545;28;20208;-71
2022/09/30 11:14:03;;;;;;;5.97;5.40;;;;;;;25.53;41.95;94896.56;4963171;28;20219;-72
2022/09/30 11:16:47;;;;;;;7.85;4.95;;;;;;;25.67;40.76;94894.31;4959184;28;20200;-72
2022/09/30 11:19:47;;;;;;;6.55;4.13;;;;;;;25.62;37.38;94891.53;4963100;28;20188;-71
2022/09/30 11:22:27;;;;;;;4.72;3.40;;;;;;;25.72;37.45;94894.38;4965729;28;20181;-70
2022/09/30 11:24:53;;;;;;;3.00;2.70;;;;;;;25.74;35.58;94894.13;4962660;28;20204;-70
2022/09/30 11:27:37;;;;;;;4.57;2.80;;;;;;;25.74;35.07;94896.81;4984422;28;20188;-71
2022/09/30 11:30:26;;;;;;;5.03;2.60;;;;;;;26.00;34.24;94906.06;4963839;28;20191;-71
2022/09/30 11:33:39;;;;;;;3.58;3.03;;;;;;;26.02;34.48;94898.53;4893043;29;20333;-68
2022/09/30 11:36:13;;;;;;;4.60;3.15;;;;;;;25.98;33.87;94892.03;4796378;29;20698;-68
2022/09/30 11:39:22;;;;;;;4.80;3.03;;;;;;;26.00;35.17;94899.88;4805493;29;20254;-68
2022/09/30 11:42:00;;;;;;;7.65;3.10;;;;;;;26.31;34.04;94898.34;4821081;29;20177;-69
2022/09/30 11:44:37;;;;;;;5.60;2.95;;;;;;;26.31;33.66;94899.16;4804675;29;20213;-69
2022/09/30 11:47:03;;;;;;;3.60;2.97;;;;;;;26.70;31.85;94896.31;4817389;29;20302;-69
2022/09/30 11:49:55;;;;;;;3.55;2.70;;;;;;;27.06;31.31;94899.34;4804651;29;20181;-70